sensor_id;sensor_type;location;lat;lon;timestamp;temperature;humidity
68177;DHT22;56478;50.982;7.032;2023-02-28T00:02:17;2.05;63.08
68177;DHT22;56478;50.982;7.032;2023-02-28T00:04:43;2.00;62.95
68177;DHT22;56478;50.982;7.032;2023-02-28T00:07:09;2.04;62.97
68177;DHT22;56478;50.982;7.032;2023-02-28T00:09:35;2.01;63.01
68177;DHT22;56478;50.982;7.032;2023-02-28T00:12:00;1.97;62.86
68177;DHT22;56478;50.982;7.032;2023-02-28T00:14:35;1.91;63.31
68177;DHT22;56478;50.982;7.032;2023-02-28T00:17:01;1.95;63.12
68177;DHT22;56478;50.982;7.032;2023-02-28T00:19:27;1.97;62.97
68177;DHT22;56478;50.982;7.032;2023-02-28T00:21:52;1.95;63.00
68177;DHT22;56478;50.982;7.032;2023-02-28T00:24:18;1.97;62.95
68177;DHT22;56478;50.982;7.032;2023-02-28T00:26:43;1.94;63.18
68177;DHT22;56478;50.982;7.032;2023-02-28T00:29:09;1.98;63.30
68177;DHT22;56478;50.982;7.032;2023-02-28T00:31:35;1.91;63.31
68177;DHT22;56478;50.982;7.032;2023-02-28T00:34:01;1.94;63.29
68177;DHT22;56478;50.982;7.032;2023-02-28T00:36:26;1.95;63.19
68177;DHT22;56478;50.982;7.032;2023-02-28T00:38:52;1.95;63.31
68177;DHT22;56478;50.982;7.032;2023-02-28T00:41:18;2.01;63.08
68177;DHT22;56478;50.982;7.032;2023-02-28T00:43:43;1.95;63.05
68177;DHT22;56478;50.982;7.032;2023-02-28T00:46:09;2.01;63.09
68177;DHT22;56478;50.982;7.032;2023-02-28T00:48:34;1.95;62.96
68177;DHT22;56478;50.982;7.032;2023-02-28T00:51:00;1.97;63.26
68177;DHT22;56478;50.982;7.032;2023-02-28T00:53:26;2.03;63.04
68177;DHT22;56478;50.982;7.032;2023-02-28T00:55:51;2.01;63.30
68177;DHT22;56478;50.982;7.032;2023-02-28T00:58:17;2.01;63.06
68177;DHT22;56478;50.982;7.032;2023-02-28T01:00:43;1.98;63.42
68177;DHT22;56478;50.982;7.032;2023-02-28T01:03:08;2.01;63.33
68177;DHT22;56478;50.982;7.032;2023-02-28T01:05:34;1.98;63.41
68177;DHT22;56478;50.982;7.032;2023-02-28T01:08:00;1.97;63.39
68177;DHT22;56478;50.982;7.032;2023-02-28T01:10:25;1.95;63.52
68177;DHT22;56478;50.982;7.032;2023-02-28T01:12:52;1.90;64.00
68177;DHT22;56478;50.982;7.032;2023-02-28T01:15:18;1.90;64.03
68177;DHT22;56478;50.982;7.032;2023-02-28T01:17:43;1.91;63.74
68177;DHT22;56478;50.982;7.032;2023-02-28T01:20:10;1.88;63.75
68177;DHT22;56478;50.982;7.032;2023-02-28T01:22:35;1.84;63.88
68177;DHT22;56478;50.982;7.032;2023-02-28T01:25:01;1.93;63.78
68177;DHT22;56478;50.982;7.032;2023-02-28T01:27:26;1.93;63.42
68177;DHT22;56478;50.982;7.032;2023-02-28T01:29:53;1.95;64.02
68177;DHT22;56478;50.982;7.032;2023-02-28T01:32:19;1.90;63.69
68177;DHT22;56478;50.982;7.032;2023-02-28T01:34:44;1.84;64.09
68177;DHT22;56478;50.982;7.032;2023-02-28T01:37:09;1.84;63.80
68177;DHT22;56478;50.982;7.032;2023-02-28T01:39:35;1.80;63.99
68177;DHT22;56478;50.982;7.032;2023-02-28T01:42:00;1.74;64.07
68177;DHT22;56478;50.982;7.032;2023-02-28T01:45:06;1.84;63.82
68177;DHT22;56478;50.982;7.032;2023-02-28T01:47:38;1.78;63.52
68177;DHT22;56478;50.982;7.032;2023-02-28T01:50:08;1.78;63.38
68177;DHT22;56478;50.982;7.032;2023-02-28T01:52:35;1.78;64.18
68177;DHT22;56478;50.982;7.032;2023-02-28T01:55:03;1.76;63.84
68177;DHT22;56478;50.982;7.032;2023-02-28T01:57:35;1.71;64.63
68177;DHT22;56478;50.982;7.032;2023-02-28T02:00:27;1.80;64.91
68177;DHT22;56478;50.982;7.032;2023-02-28T02:02:57;1.78;64.21
68177;DHT22;56478;50.982;7.032;2023-02-28T02:05:29;1.81;64.05
68177;DHT22;56478;50.982;7.032;2023-02-28T02:08:01;1.81;64.53
68177;DHT22;56478;50.982;7.032;2023-02-28T02:10:42;1.78;64.67
68177;DHT22;56478;50.982;7.032;2023-02-28T02:18:53;1.74;64.29
68177;DHT22;56478;50.982;7.032;2023-02-28T02:32:35;1.39;66.00
68177;DHT22;56478;50.982;7.032;2023-02-28T02:35:26;1.38;65.75
68177;DHT22;56478;50.982;7.032;2023-02-28T02:38:10;1.41;64.78
68177;DHT22;56478;50.982;7.032;2023-02-28T02:41:12;1.46;63.87
68177;DHT22;56478;50.982;7.032;2023-02-28T02:46:34;1.55;62.78
68177;DHT22;56478;50.982;7.032;2023-02-28T02:49:05;1.53;62.00
68177;DHT22;56478;50.982;7.032;2023-02-28T02:51:35;1.55;61.89
68177;DHT22;56478;50.982;7.032;2023-02-28T02:54:07;1.55;61.42
68177;DHT22;56478;50.982;7.032;2023-02-28T02:56:34;1.55;61.48
68177;DHT22;56478;50.982;7.032;2023-02-28T02:59:04;1.58;61.08
68177;DHT22;56478;50.982;7.032;2023-02-28T03:01:32;1.58;60.89
68177;DHT22;56478;50.982;7.032;2023-02-28T03:04:03;1.59;60.69
68177;DHT22;56478;50.982;7.032;2023-02-28T03:06:30;1.58;60.17
68177;DHT22;56478;50.982;7.032;2023-02-28T03:08:55;1.59;60.29
68177;DHT22;56478;50.982;7.032;2023-02-28T03:11:21;1.62;60.20
68177;DHT22;56478;50.982;7.032;2023-02-28T03:19:54;1.48;62.04
68177;DHT22;56478;50.982;7.032;2023-02-28T03:25:43;1.39;63.05
68177;DHT22;56478;50.982;7.032;2023-02-28T03:28:22;1.25;61.97
68177;DHT22;56478;50.982;7.032;2023-02-28T03:31:10;1.27;62.41
68177;DHT22;56478;50.982;7.032;2023-02-28T03:33:43;1.21;63.45
68177;DHT22;56478;50.982;7.032;2023-02-28T03:36:12;1.21;63.33
68177;DHT22;56478;50.982;7.032;2023-02-28T03:39:00;1.21;62.56
68177;DHT22;56478;50.982;7.032;2023-02-28T03:41:46;1.15;63.08
68177;DHT22;56478;50.982;7.032;2023-02-28T03:44:19;1.08;62.19
68177;DHT22;56478;50.982;7.032;2023-02-28T03:47:13;1.14;61.49
68177;DHT22;56478;50.982;7.032;2023-02-28T03:49:45;1.23;61.53
68177;DHT22;56478;50.982;7.032;2023-02-28T03:52:13;1.25;61.94
68177;DHT22;56478;50.982;7.032;2023-02-28T03:54:47;1.27;62.20
68177;DHT22;56478;50.982;7.032;2023-02-28T03:57:32;1.21;62.13
68177;DHT22;56478;50.982;7.032;2023-02-28T04:00:04;1.23;62.31
68177;DHT22;56478;50.982;7.032;2023-02-28T04:02:31;1.30;62.96
68177;DHT22;56478;50.982;7.032;2023-02-28T04:04:57;1.24;63.43
68177;DHT22;56478;50.982;7.032;2023-02-28T04:07:23;1.20;63.70
68177;DHT22;56478;50.982;7.032;2023-02-28T04:09:48;1.25;64.06
68177;DHT22;56478;50.982;7.032;2023-02-28T04:12:14;1.21;64.23
68177;DHT22;56478;50.982;7.032;2023-02-28T04:14:39;1.18;64.75
68177;DHT22;56478;50.982;7.032;2023-02-28T04:17:05;1.15;64.45
68177;DHT22;56478;50.982;7.032;2023-02-28T04:19:30;1.15;64.34
68177;DHT22;56478;50.982;7.032;2023-02-28T04:21:56;1.20;63.93
68177;DHT22;56478;50.982;7.032;2023-02-28T04:24:24;1.21;64.53
68177;DHT22;56478;50.982;7.032;2023-02-28T04:26:52;1.14;64.26
68177;DHT22;56478;50.982;7.032;2023-02-28T04:29:27;1.13;63.95
68177;DHT22;56478;50.982;7.032;2023-02-28T04:31:53;1.13;64.69
68177;DHT22;56478;50.982;7.032;2023-02-28T04:34:20;1.01;64.35
68177;DHT22;56478;50.982;7.032;2023-02-28T04:36:47;1.00;64.31
68177;DHT22;56478;50.982;7.032;2023-02-28T04:39:15;1.00;64.38
68177;DHT22;56478;50.982;7.032;2023-02-28T04:41:40;0.90;64.12
68177;DHT22;56478;50.982;7.032;2023-02-28T04:44:06;1.00;64.85
68177;DHT22;56478;50.982;7.032;2023-02-28T04:46:32;0.94;64.63
68177;DHT22;56478;50.982;7.032;2023-02-28T04:48:57;1.05;64.94
68177;DHT22;56478;50.982;7.032;2023-02-28T04:51:23;0.96;64.10
68177;DHT22;56478;50.982;7.032;2023-02-28T04:53:49;1.04;64.35
68177;DHT22;56478;50.982;7.032;2023-02-28T04:56:17;1.11;64.92
68177;DHT22;56478;50.982;7.032;2023-02-28T04:58:43;1.08;64.38
68177;DHT22;56478;50.982;7.032;2023-02-28T05:01:26;1.03;64.15
68177;DHT22;56478;50.982;7.032;2023-02-28T05:03:54;1.04;64.04
68177;DHT22;56478;50.982;7.032;2023-02-28T05:06:26;0.93;63.76
68177;DHT22;56478;50.982;7.032;2023-02-28T05:08:53;0.93;64.12
68177;DHT22;56478;50.982;7.032;2023-02-28T05:11:31;1.00;64.00
68177;DHT22;56478;50.982;7.032;2023-02-28T05:14:04;1.00;64.28
68177;DHT22;56478;50.982;7.032;2023-02-28T05:16:31;0.97;64.12
68177;DHT22;56478;50.982;7.032;2023-02-28T05:18:56;0.94;64.17
68177;DHT22;56478;50.982;7.032;2023-02-28T05:21:36;0.90;63.43
68177;DHT22;56478;50.982;7.032;2023-02-28T05:24:13;0.93;64.41
68177;DHT22;56478;50.982;7.032;2023-02-28T05:26:41;0.94;63.52
68177;DHT22;56478;50.982;7.032;2023-02-28T05:29:06;0.83;63.46
68177;DHT22;56478;50.982;7.032;2023-02-28T05:31:33;0.90;64.03
68177;DHT22;56478;50.982;7.032;2023-02-28T05:33:59;0.87;63.86
68177;DHT22;56478;50.982;7.032;2023-02-28T05:36:25;0.80;63.19
68177;DHT22;56478;50.982;7.032;2023-02-28T05:38:51;0.83;63.07
68177;DHT22;56478;50.982;7.032;2023-02-28T05:41:18;0.84;62.23
68177;DHT22;56478;50.982;7.032;2023-02-28T05:43:44;0.84;62.46
68177;DHT22;56478;50.982;7.032;2023-02-28T05:46:11;0.81;62.11
68177;DHT22;56478;50.982;7.032;2023-02-28T05:48:39;0.83;62.20
68177;DHT22;56478;50.982;7.032;2023-02-28T05:51:05;0.81;61.94
68177;DHT22;56478;50.982;7.032;2023-02-28T05:53:31;0.76;61.69
68177;DHT22;56478;50.982;7.032;2023-02-28T05:55:57;0.79;61.53
68177;DHT22;56478;50.982;7.032;2023-02-28T05:58:23;0.80;61.45
68177;DHT22;56478;50.982;7.032;2023-02-28T06:00:51;0.90;61.46
68177;DHT22;56478;50.982;7.032;2023-02-28T06:03:16;0.94;61.69
68177;DHT22;56478;50.982;7.032;2023-02-28T06:05:42;0.86;61.34
68177;DHT22;56478;50.982;7.032;2023-02-28T06:08:07;0.89;61.42
68177;DHT22;56478;50.982;7.032;2023-02-28T06:10:34;0.90;61.71
68177;DHT22;56478;50.982;7.032;2023-02-28T06:13:01;0.80;61.36
68177;DHT22;56478;50.982;7.032;2023-02-28T06:15:30;0.75;61.30
68177;DHT22;56478;50.982;7.032;2023-02-28T06:17:56;0.75;61.41
68177;DHT22;56478;50.982;7.032;2023-02-28T06:20:22;0.79;61.23
68177;DHT22;56478;50.982;7.032;2023-02-28T06:22:48;0.84;61.75
68177;DHT22;56478;50.982;7.032;2023-02-28T06:25:13;0.84;62.82
68177;DHT22;56478;50.982;7.032;2023-02-28T06:27:39;0.84;63.19
68177;DHT22;56478;50.982;7.032;2023-02-28T06:30:04;0.76;62.31
68177;DHT22;56478;50.982;7.032;2023-02-28T06:32:30;0.86;61.90
68177;DHT22;56478;50.982;7.032;2023-02-28T06:34:56;0.93;62.17
68177;DHT22;56478;50.982;7.032;2023-02-28T06:37:23;0.93;61.50
68177;DHT22;56478;50.982;7.032;2023-02-28T06:39:51;0.94;62.11
68177;DHT22;56478;50.982;7.032;2023-02-28T06:42:17;0.94;62.50
68177;DHT22;56478;50.982;7.032;2023-02-28T06:44:42;0.94;62.53
68177;DHT22;56478;50.982;7.032;2023-02-28T06:47:08;0.96;62.02
68177;DHT22;56478;50.982;7.032;2023-02-28T06:49:34;1.04;62.28
68177;DHT22;56478;50.982;7.032;2023-02-28T06:52:00;1.01;61.67
68177;DHT22;56478;50.982;7.032;2023-02-28T06:54:26;1.04;61.06
68177;DHT22;56478;50.982;7.032;2023-02-28T06:56:52;1.09;60.71
68177;DHT22;56478;50.982;7.032;2023-02-28T06:59:19;1.14;60.34
68177;DHT22;56478;50.982;7.032;2023-02-28T07:01:45;1.17;60.57
68177;DHT22;56478;50.982;7.032;2023-02-28T07:04:10;1.23;61.10
68177;DHT22;56478;50.982;7.032;2023-02-28T07:06:36;1.31;60.46
68177;DHT22;56478;50.982;7.032;2023-02-28T07:09:01;1.38;59.51
68177;DHT22;56478;50.982;7.032;2023-02-28T07:11:28;1.34;59.90
68177;DHT22;56478;50.982;7.032;2023-02-28T07:13:54;1.41;59.38
68177;DHT22;56478;50.982;7.032;2023-02-28T07:16:20;1.46;58.36
68177;DHT22;56478;50.982;7.032;2023-02-28T07:18:46;1.58;57.86
68177;DHT22;56478;50.982;7.032;2023-02-28T07:21:12;2.38;56.18
68177;DHT22;56478;50.982;7.032;2023-02-28T07:23:38;3.04;53.48
68177;DHT22;56478;50.982;7.032;2023-02-28T07:26:05;3.36;51.76
68177;DHT22;56478;50.982;7.032;2023-02-28T07:28:31;3.52;51.35
68177;DHT22;56478;50.982;7.032;2023-02-28T07:30:56;3.78;49.98
68177;DHT22;56478;50.982;7.032;2023-02-28T07:33:22;3.78;49.72
68177;DHT22;56478;50.982;7.032;2023-02-28T07:35:49;3.78;50.31
68177;DHT22;56478;50.982;7.032;2023-02-28T07:38:15;3.56;49.69
68177;DHT22;56478;50.982;7.032;2023-02-28T07:40:40;3.89;49.09
68177;DHT22;56478;50.982;7.032;2023-02-28T07:43:06;4.46;47.43
68177;DHT22;56478;50.982;7.032;2023-02-28T07:45:32;4.91;45.05
68177;DHT22;56478;50.982;7.032;2023-02-28T07:47:59;5.69;44.61
68177;DHT22;56478;50.982;7.032;2023-02-28T07:50:25;6.86;41.42
68177;DHT22;56478;50.982;7.032;2023-02-28T07:52:52;7.66;38.25
68177;DHT22;56478;50.982;7.032;2023-02-28T07:55:18;8.84;36.50
68177;DHT22;56478;50.982;7.032;2023-02-28T07:57:44;9.94;33.76
68177;DHT22;56478;50.982;7.032;2023-02-28T08:00:11;10.59;32.44
68177;DHT22;56478;50.982;7.032;2023-02-28T08:02:38;11.04;31.64
68177;DHT22;56478;50.982;7.032;2023-02-28T08:05:04;11.85;30.10
68177;DHT22;56478;50.982;7.032;2023-02-28T08:07:30;13.05;28.27
68177;DHT22;56478;50.982;7.032;2023-02-28T08:09:55;13.67;27.57
68177;DHT22;56478;50.982;7.032;2023-02-28T08:12:21;13.88;27.49
68177;DHT22;56478;50.982;7.032;2023-02-28T08:14:47;13.97;28.47
68177;DHT22;56478;50.982;7.032;2023-02-28T08:17:12;14.81;26.29
68177;DHT22;56478;50.982;7.032;2023-02-28T08:19:38;14.48;25.87
68177;DHT22;56478;50.982;7.032;2023-02-28T08:22:04;15.83;24.94
68177;DHT22;56478;50.982;7.032;2023-02-28T08:24:30;15.31;24.03
68177;DHT22;56478;50.982;7.032;2023-02-28T08:26:56;15.81;23.97
68177;DHT22;56478;50.982;7.032;2023-02-28T08:29:22;15.30;24.98
68177;DHT22;56478;50.982;7.032;2023-02-28T08:31:49;16.12;23.41
68177;DHT22;56478;50.982;7.032;2023-02-28T08:34:15;15.98;23.26
68177;DHT22;56478;50.982;7.032;2023-02-28T08:36:41;15.99;23.09
68177;DHT22;56478;50.982;7.032;2023-02-28T08:39:09;16.19;22.81
68177;DHT22;56478;50.982;7.032;2023-02-28T08:41:34;16.26;23.02
68177;DHT22;56478;50.982;7.032;2023-02-28T08:44:00;15.03;23.23
68177;DHT22;56478;50.982;7.032;2023-02-28T08:46:26;16.06;23.62
68177;DHT22;56478;50.982;7.032;2023-02-28T08:48:54;16.06;23.18
68177;DHT22;56478;50.982;7.032;2023-02-28T08:51:21;17.10;21.74
68177;DHT22;56478;50.982;7.032;2023-02-28T08:53:52;17.02;23.14
68177;DHT22;56478;50.982;7.032;2023-02-28T08:56:18;17.35;21.24
68177;DHT22;56478;50.982;7.032;2023-02-28T08:58:54;17.44;21.73
68177;DHT22;56478;50.982;7.032;2023-02-28T09:01:28;18.26;19.84
68177;DHT22;56478;50.982;7.032;2023-02-28T09:03:55;17.76;20.14
68177;DHT22;56478;50.982;7.032;2023-02-28T09:06:23;18.45;18.60
68177;DHT22;56478;50.982;7.032;2023-02-28T09:08:49;18.37;20.86
68177;DHT22;56478;50.982;7.032;2023-02-28T09:11:16;18.06;20.12
68177;DHT22;56478;50.982;7.032;2023-02-28T09:13:41;18.58;19.93
68177;DHT22;56478;50.982;7.032;2023-02-28T09:16:10;19.15;18.03
68177;DHT22;56478;50.982;7.032;2023-02-28T09:18:36;18.11;20.07
68177;DHT22;56478;50.982;7.032;2023-02-28T09:21:05;18.82;19.87
68177;DHT22;56478;50.982;7.032;2023-02-28T09:23:31;18.93;19.44
68177;DHT22;56478;50.982;7.032;2023-02-28T09:25:56;19.18;19.33
68177;DHT22;56478;50.982;7.032;2023-02-28T09:28:23;19.13;19.18
68177;DHT22;56478;50.982;7.032;2023-02-28T09:30:51;19.85;18.89
68177;DHT22;56478;50.982;7.032;2023-02-28T09:33:17;18.96;18.90
68177;DHT22;56478;50.982;7.032;2023-02-28T09:35:45;18.30;20.40
68177;DHT22;56478;50.982;7.032;2023-02-28T09:38:11;19.66;18.33
68177;DHT22;56478;50.982;7.032;2023-02-28T09:40:45;18.77;18.69
68177;DHT22;56478;50.982;7.032;2023-02-28T09:43:14;18.02;20.10
68177;DHT22;56478;50.982;7.032;2023-02-28T09:45:42;18.59;19.70
68177;DHT22;56478;50.982;7.032;2023-02-28T09:48:17;17.14;19.76
68177;DHT22;56478;50.982;7.032;2023-02-28T09:50:48;17.54;19.83
68177;DHT22;56478;50.982;7.032;2023-02-28T09:53:22;17.19;20.33
68177;DHT22;56478;50.982;7.032;2023-02-28T09:55:56;18.18;19.75
68177;DHT22;56478;50.982;7.032;2023-02-28T09:58:30;18.04;19.65
68177;DHT22;56478;50.982;7.032;2023-02-28T10:01:09;17.94;20.66
68177;DHT22;56478;50.982;7.032;2023-02-28T10:03:43;16.69;19.92
68177;DHT22;56478;50.982;7.032;2023-02-28T10:06:19;18.41;19.23
68177;DHT22;56478;50.982;7.032;2023-02-28T10:09:38;17.35;20.12
68177;DHT22;56478;50.982;7.032;2023-02-28T10:12:03;17.51;19.45
68177;DHT22;56478;50.982;7.032;2023-02-28T10:14:32;17.00;20.59
68177;DHT22;56478;50.982;7.032;2023-02-28T10:17:12;18.40;20.14
68177;DHT22;56478;50.982;7.032;2023-02-28T10:22:29;18.66;19.36
68177;DHT22;56478;50.982;7.032;2023-02-28T10:24:58;18.66;19.12
68177;DHT22;56478;50.982;7.032;2023-02-28T10:27:30;19.57;18.45
68177;DHT22;56478;50.982;7.032;2023-02-28T10:30:00;18.69;19.07
68177;DHT22;56478;50.982;7.032;2023-02-28T10:32:29;18.30;19.41
68177;DHT22;56478;50.982;7.032;2023-02-28T10:35:07;18.52;20.72
68177;DHT22;56478;50.982;7.032;2023-02-28T10:37:39;18.99;19.61
68177;DHT22;56478;50.982;7.032;2023-02-28T10:40:06;18.06;19.86
68177;DHT22;56478;50.982;7.032;2023-02-28T10:42:34;16.60;21.71
68177;DHT22;56478;50.982;7.032;2023-02-28T10:45:16;16.64;21.02
68177;DHT22;56478;50.982;7.032;2023-02-28T10:58:55;15.78;23.25
68177;DHT22;56478;50.982;7.032;2023-02-28T11:01:45;15.10;23.79
68177;DHT22;56478;50.982;7.032;2023-02-28T11:07:20;14.92;25.08
68177;DHT22;56478;50.982;7.032;2023-02-28T11:09:49;13.89;24.78
68177;DHT22;56478;50.982;7.032;2023-02-28T11:12:28;12.80;25.91
68177;DHT22;56478;50.982;7.032;2023-02-28T11:17:42;11.53;27.55
68177;DHT22;56478;50.982;7.032;2023-02-28T11:22:45;11.71;29.23
68177;DHT22;56478;50.982;7.032;2023-02-28T11:25:29;12.34;27.92
68177;DHT22;56478;50.982;7.032;2023-02-28T11:28:00;12.53;28.00
68177;DHT22;56478;50.982;7.032;2023-02-28T11:30:35;12.89;26.62
68177;DHT22;56478;50.982;7.032;2023-02-28T11:35:49;12.47;27.21
68177;DHT22;56478;50.982;7.032;2023-02-28T11:38:15;11.62;28.06
68177;DHT22;56478;50.982;7.032;2023-02-28T11:43:48;11.62;29.06
68177;DHT22;56478;50.982;7.032;2023-02-28T11:46:30;11.81;30.19
68177;DHT22;56478;50.982;7.032;2023-02-28T11:52:25;12.22;28.97
68177;DHT22;56478;50.982;7.032;2023-02-28T11:55:01;11.75;28.72
68177;DHT22;56478;50.982;7.032;2023-02-28T12:10:28;10.40;29.92
68177;DHT22;56478;50.982;7.032;2023-02-28T12:13:23;10.19;30.99
68177;DHT22;56478;50.982;7.032;2023-02-28T12:21:53;10.98;29.72
68177;DHT22;56478;50.982;7.032;2023-02-28T12:26:58;10.71;31.15
68177;DHT22;56478;50.982;7.032;2023-02-28T12:29:33;10.49;30.32
68177;DHT22;56478;50.982;7.032;2023-02-28T12:32:09;10.04;30.02
68177;DHT22;56478;50.982;7.032;2023-02-28T12:34:38;10.46;30.94
68177;DHT22;56478;50.982;7.032;2023-02-28T12:37:13;10.48;30.89
68177;DHT22;56478;50.982;7.032;2023-02-28T12:39:45;10.49;29.62
68177;DHT22;56478;50.982;7.032;2023-02-28T12:42:16;10.19;29.99
68177;DHT22;56478;50.982;7.032;2023-02-28T12:45:02;9.90;30.03
68177;DHT22;56478;50.982;7.032;2023-02-28T12:47:29;9.71;30.78
68177;DHT22;56478;50.982;7.032;2023-02-28T12:50:07;9.71;30.81
68177;DHT22;56478;50.982;7.032;2023-02-28T12:52:46;9.95;32.03
68177;DHT22;56478;50.982;7.032;2023-02-28T12:55:40;10.23;31.60
68177;DHT22;56478;50.982;7.032;2023-02-28T13:01:02;10.57;30.59
68177;DHT22;56478;50.982;7.032;2023-02-28T13:14:36;10.05;30.90
68177;DHT22;56478;50.982;7.032;2023-02-28T13:17:11;10.05;31.20
68177;DHT22;56478;50.982;7.032;2023-02-28T13:19:38;10.14;30.61
68177;DHT22;56478;50.982;7.032;2023-02-28T13:22:05;9.97;30.98
68177;DHT22;56478;50.982;7.032;2023-02-28T13:24:52;9.94;32.26
68177;DHT22;56478;50.982;7.032;2023-02-28T13:27:24;10.19;32.19
68177;DHT22;56478;50.982;7.032;2023-02-28T13:29:56;10.26;30.37
68177;DHT22;56478;50.982;7.032;2023-02-28T13:47:39;10.16;31.97
68177;DHT22;56478;50.982;7.032;2023-02-28T13:50:29;9.64;32.81
68177;DHT22;56478;50.982;7.032;2023-02-28T13:55:43;9.80;33.66
68177;DHT22;56478;50.982;7.032;2023-02-28T13:58:51;9.69;31.79
68177;DHT22;56478;50.982;7.032;2023-02-28T14:04:17;9.15;33.76
68177;DHT22;56478;50.982;7.032;2023-02-28T14:06:54;9.28;33.11
68177;DHT22;56478;50.982;7.032;2023-02-28T14:09:26;9.15;33.62
68177;DHT22;56478;50.982;7.032;2023-02-28T14:11:52;9.18;33.48
68177;DHT22;56478;50.982;7.032;2023-02-28T14:17:12;9.47;33.52
68177;DHT22;56478;50.982;7.032;2023-02-28T14:19:39;9.40;34.01
68177;DHT22;56478;50.982;7.032;2023-02-28T14:25:10;9.32;34.26
68177;DHT22;56478;50.982;7.032;2023-02-28T14:36:20;9.11;33.10
68177;DHT22;56478;50.982;7.032;2023-02-28T14:38:56;9.14;32.95
68177;DHT22;56478;50.982;7.032;2023-02-28T14:41:29;9.14;33.19
68177;DHT22;56478;50.982;7.032;2023-02-28T14:43:57;9.22;33.16
68177;DHT22;56478;50.982;7.032;2023-02-28T14:46:28;9.32;33.69
68177;DHT22;56478;50.982;7.032;2023-02-28T14:48:55;9.22;33.11
68177;DHT22;56478;50.982;7.032;2023-02-28T14:51:22;9.26;33.00
68177;DHT22;56478;50.982;7.032;2023-02-28T14:53:51;9.35;33.65
68177;DHT22;56478;50.982;7.032;2023-02-28T14:56:21;9.31;33.81
68177;DHT22;56478;50.982;7.032;2023-02-28T14:58:55;9.26;33.65
68177;DHT22;56478;50.982;7.032;2023-02-28T15:01:23;9.36;33.01
68177;DHT22;56478;50.982;7.032;2023-02-28T15:04:05;9.17;33.36
68177;DHT22;56478;50.982;7.032;2023-02-28T15:06:32;9.28;33.65
68177;DHT22;56478;50.982;7.032;2023-02-28T15:09:17;9.15;31.85
68177;DHT22;56478;50.982;7.032;2023-02-28T15:11:49;9.46;32.46
68177;DHT22;56478;50.982;7.032;2023-02-28T15:14:18;9.32;34.73
68177;DHT22;56478;50.982;7.032;2023-02-28T15:16:46;9.10;33.63
68177;DHT22;56478;50.982;7.032;2023-02-28T15:19:24;9.04;34.73
68177;DHT22;56478;50.982;7.032;2023-02-28T15:22:19;9.00;34.73
68177;DHT22;56478;50.982;7.032;2023-02-28T15:24:48;9.03;34.93
68177;DHT22;56478;50.982;7.032;2023-02-28T15:29:50;8.90;34.20
68177;DHT22;56478;50.982;7.032;2023-02-28T15:32:33;8.77;35.11
68177;DHT22;56478;50.982;7.032;2023-02-28T15:35:27;8.77;34.88
68177;DHT22;56478;50.982;7.032;2023-02-28T15:37:55;8.63;34.91
68177;DHT22;56478;50.982;7.032;2023-02-28T15:40:26;8.77;35.52
68177;DHT22;56478;50.982;7.032;2023-02-28T15:43:14;8.73;34.47
68177;DHT22;56478;50.982;7.032;2023-02-28T15:45:47;8.57;35.28
68177;DHT22;56478;50.982;7.032;2023-02-28T15:48:20;8.48;35.49
68177;DHT22;56478;50.982;7.032;2023-02-28T15:50:52;8.49;36.60
68177;DHT22;56478;50.982;7.032;2023-02-28T15:53:47;8.37;35.89
68177;DHT22;56478;50.982;7.032;2023-02-28T15:56:24;8.37;38.08
68177;DHT22;56478;50.982;7.032;2023-02-28T15:58:53;8.39;35.39
68177;DHT22;56478;50.982;7.032;2023-02-28T16:01:31;8.39;35.91
68177;DHT22;56478;50.982;7.032;2023-02-28T16:04:00;8.28;35.24
68177;DHT22;56478;50.982;7.032;2023-02-28T16:09:02;8.25;36.22
68177;DHT22;56478;50.982;7.032;2023-02-28T16:11:28;8.08;35.41
68177;DHT22;56478;50.982;7.032;2023-02-28T16:13:54;8.21;36.00
68177;DHT22;56478;50.982;7.032;2023-02-28T16:16:21;8.11;37.80
68177;DHT22;56478;50.982;7.032;2023-02-28T16:18:48;8.18;35.66
68177;DHT22;56478;50.982;7.032;2023-02-28T16:21:13;7.98;36.30
68177;DHT22;56478;50.982;7.032;2023-02-28T16:23:39;8.01;36.21
68177;DHT22;56478;50.982;7.032;2023-02-28T16:26:05;7.93;36.95
68177;DHT22;56478;50.982;7.032;2023-02-28T16:28:36;7.87;36.41
68177;DHT22;56478;50.982;7.032;2023-02-28T16:31:05;7.82;36.26
68177;DHT22;56478;50.982;7.032;2023-02-28T16:33:32;7.82;37.32
68177;DHT22;56478;50.982;7.032;2023-02-28T16:36:01;7.73;38.31
68177;DHT22;56478;50.982;7.032;2023-02-28T16:38:27;7.72;37.87
68177;DHT22;56478;50.982;7.032;2023-02-28T16:40:55;7.69;38.23
68177;DHT22;56478;50.982;7.032;2023-02-28T16:43:24;7.59;38.54
68177;DHT22;56478;50.982;7.032;2023-02-28T16:45:55;7.62;37.36
68177;DHT22;56478;50.982;7.032;2023-02-28T16:48:22;7.56;38.17
68177;DHT22;56478;50.982;7.032;2023-02-28T16:50:49;7.55;40.38
68177;DHT22;56478;50.982;7.032;2023-02-28T16:53:14;7.49;39.17
68177;DHT22;56478;50.982;7.032;2023-02-28T16:55:40;7.38;39.04
68177;DHT22;56478;50.982;7.032;2023-02-28T16:58:06;7.28;41.23
68177;DHT22;56478;50.982;7.032;2023-02-28T17:00:32;7.21;41.03
68177;DHT22;56478;50.982;7.032;2023-02-28T17:02:58;7.07;40.12
68177;DHT22;56478;50.982;7.032;2023-02-28T17:05:33;7.18;39.04
68177;DHT22;56478;50.982;7.032;2023-02-28T17:08:01;6.99;40.51
68177;DHT22;56478;50.982;7.032;2023-02-28T17:10:26;6.86;39.79
68177;DHT22;56478;50.982;7.032;2023-02-28T17:12:52;6.88;41.70
68177;DHT22;56478;50.982;7.032;2023-02-28T17:15:19;6.82;42.41
68177;DHT22;56478;50.982;7.032;2023-02-28T17:17:46;6.78;42.52
68177;DHT22;56478;50.982;7.032;2023-02-28T17:20:17;6.76;42.17
68177;DHT22;56478;50.982;7.032;2023-02-28T17:22:43;6.64;42.95
68177;DHT22;56478;50.982;7.032;2023-02-28T17:25:10;6.58;41.96
68177;DHT22;56478;50.982;7.032;2023-02-28T17:27:36;6.52;41.72
68177;DHT22;56478;50.982;7.032;2023-02-28T17:30:25;6.45;42.60
68177;DHT22;56478;50.982;7.032;2023-02-28T17:32:49;6.38;42.20
68177;DHT22;56478;50.982;7.032;2023-02-28T17:35:15;6.40;43.30
68177;DHT22;56478;50.982;7.032;2023-02-28T17:37:41;6.33;42.19
68177;DHT22;56478;50.982;7.032;2023-02-28T17:40:16;6.31;43.07
68177;DHT22;56478;50.982;7.032;2023-02-28T17:42:43;6.27;42.51
68177;DHT22;56478;50.982;7.032;2023-02-28T17:45:10;6.26;42.03
68177;DHT22;56478;50.982;7.032;2023-02-28T17:47:36;6.28;41.72
68177;DHT22;56478;50.982;7.032;2023-02-28T17:50:02;6.18;44.31
68177;DHT22;56478;50.982;7.032;2023-02-28T17:52:28;6.06;44.89
68177;DHT22;56478;50.982;7.032;2023-02-28T17:54:55;5.91;45.42
68177;DHT22;56478;50.982;7.032;2023-02-28T17:57:20;5.89;46.06
68177;DHT22;56478;50.982;7.032;2023-02-28T17:59:46;5.79;46.62
68177;DHT22;56478;50.982;7.032;2023-02-28T18:02:13;5.68;47.31
68177;DHT22;56478;50.982;7.032;2023-02-28T18:04:39;5.65;47.11
68177;DHT22;56478;50.982;7.032;2023-02-28T18:07:06;5.58;47.31
68177;DHT22;56478;50.982;7.032;2023-02-28T18:09:32;5.55;48.12
68177;DHT22;56478;50.982;7.032;2023-02-28T18:11:57;5.51;48.43
68177;DHT22;56478;50.982;7.032;2023-02-28T18:14:24;5.43;49.26
68177;DHT22;56478;50.982;7.032;2023-02-28T18:16:52;5.43;49.07